sensor_id;sensor_type;location;lat;lon;timestamp;temperature;humidity
48264;DHT22;34086;51.076;13.722;2023-02-28T00:00:57;0.90;99.90
48264;DHT22;34086;51.076;13.722;2023-02-28T00:01:57;0.90;99.90
48264;DHT22;34086;51.076;13.722;2023-02-28T00:02:58;0.90;99.90
48264;DHT22;34086;51.076;13.722;2023-02-28T00:03:59;0.90;99.90
48264;DHT22;34086;51.076;13.722;2023-02-28T00:05:00;1.00;99.90
48264;DHT22;34086;51.076;13.722;2023-02-28T00:06:03;1.00;99.90
48264;DHT22;34086;51.076;13.722;2023-02-28T00:07:04;1.00;99.90
48264;DHT22;34086;51.076;13.722;2023-02-28T00:08:04;0.90;99.90
48264;DHT22;34086;51.076;13.722;2023-02-28T00:09:05;1.00;99.90
48264;DHT22;34086;51.076;13.722;2023-02-28T00:10:06;1.00;99.90
48264;DHT22;34086;51.076;13.722;2023-02-28T00:11:10;1.00;99.90
48264;DHT22;34086;51.076;13.722;2023-02-28T00:12:11;1.00;99.90
48264;DHT22;34086;51.076;13.722;2023-02-28T00:13:12;1.00;99.90
48264;DHT22;34086;51.076;13.722;2023-02-28T00:14:13;1.00;99.90
48264;DHT22;34086;51.076;13.722;2023-02-28T00:15:14;1.00;99.90
48264;DHT22;34086;51.076;13.722;2023-02-28T00:16:17;1.00;99.90
48264;DHT22;34086;51.076;13.722;2023-02-28T00:17:19;0.90;99.90
48264;DHT22;34086;51.076;13.722;2023-02-28T00:18:21;0.90;99.90
48264;DHT22;34086;51.076;13.722;2023-02-28T00:19:21;0.90;99.90
48264;DHT22;34086;51.076;13.722;2023-02-28T00:20:22;0.90;99.90
48264;DHT22;34086;51.076;13.722;2023-02-28T00:21:23;0.90;99.90
48264;DHT22;34086;51.076;13.722;2023-02-28T00:22:24;0.80;99.90
48264;DHT22;34086;51.076;13.722;2023-02-28T00:23:26;0.80;99.90
48264;DHT22;34086;51.076;13.722;2023-02-28T00:24:26;0.80;99.90
48264;DHT22;34086;51.076;13.722;2023-02-28T00:25:27;0.70;99.90
48264;DHT22;34086;51.076;13.722;2023-02-28T00:26:27;0.70;99.90
48264;DHT22;34086;51.076;13.722;2023-02-28T00:27:28;0.70;99.90
48264;DHT22;34086;51.076;13.722;2023-02-28T00:28:28;0.60;99.90
48264;DHT22;34086;51.076;13.722;2023-02-28T00:29:29;0.60;99.90
48264;DHT22;34086;51.076;13.722;2023-02-28T00:30:29;0.60;99.90
48264;DHT22;34086;51.076;13.722;2023-02-28T00:31:30;0.60;99.90
48264;DHT22;34086;51.076;13.722;2023-02-28T00:32:31;0.60;99.90
48264;DHT22;34086;51.076;13.722;2023-02-28T00:33:31;0.60;99.90
48264;DHT22;34086;51.076;13.722;2023-02-28T00:34:32;0.60;99.90
48264;DHT22;34086;51.076;13.722;2023-02-28T00:35:37;0.60;99.90
48264;DHT22;34086;51.076;13.722;2023-02-28T00:36:38;0.60;99.90
48264;DHT22;34086;51.076;13.722;2023-02-28T00:37:39;0.60;99.90
48264;DHT22;34086;51.076;13.722;2023-02-28T00:38:40;0.60;99.90
48264;DHT22;34086;51.076;13.722;2023-02-28T00:39:40;0.60;99.90
48264;DHT22;34086;51.076;13.722;2023-02-28T00:40:42;0.60;99.90
48264;DHT22;34086;51.076;13.722;2023-02-28T00:41:45;0.60;99.90
48264;DHT22;34086;51.076;13.722;2023-02-28T00:42:45;0.60;99.90
48264;DHT22;34086;51.076;13.722;2023-02-28T00:43:46;0.60;99.90
48264;DHT22;34086;51.076;13.722;2023-02-28T00:44:46;0.60;99.90
48264;DHT22;34086;51.076;13.722;2023-02-28T00:45:47;0.60;99.90
48264;DHT22;34086;51.076;13.722;2023-02-28T00:46:47;0.50;99.90
48264;DHT22;34086;51.076;13.722;2023-02-28T00:47:48;0.50;99.90
48264;DHT22;34086;51.076;13.722;2023-02-28T00:48:50;0.50;99.90
48264;DHT22;34086;51.076;13.722;2023-02-28T00:49:50;0.50;99.90
48264;DHT22;34086;51.076;13.722;2023-02-28T00:50:51;0.50;99.90
48264;DHT22;34086;51.076;13.722;2023-02-28T00:51:52;0.50;99.90
48264;DHT22;34086;51.076;13.722;2023-02-28T00:52:53;0.50;99.90
48264;DHT22;34086;51.076;13.722;2023-02-28T00:53:54;0.40;99.90
48264;DHT22;34086;51.076;13.722;2023-02-28T00:54:55;0.40;99.90
48264;DHT22;34086;51.076;13.722;2023-02-28T00:55:56;0.40;99.90
48264;DHT22;34086;51.076;13.722;2023-02-28T00:56:56;0.40;99.90
48264;DHT22;34086;51.076;13.722;2023-02-28T00:57:57;0.40;99.90
48264;DHT22;34086;51.076;13.722;2023-02-28T00:58:59;0.40;99.90
48264;DHT22;34086;51.076;13.722;2023-02-28T00:59:59;0.30;99.90
48264;DHT22;34086;51.076;13.722;2023-02-28T01:01:01;0.40;99.90
48264;DHT22;34086;51.076;13.722;2023-02-28T01:02:02;0.30;99.90
48264;DHT22;34086;51.076;13.722;2023-02-28T01:03:03;0.30;99.90
48264;DHT22;34086;51.076;13.722;2023-02-28T01:04:03;0.30;99.90
48264;DHT22;34086;51.076;13.722;2023-02-28T01:05:05;0.30;99.90
48264;DHT22;34086;51.076;13.722;2023-02-28T01:06:06;0.30;99.90
48264;DHT22;34086;51.076;13.722;2023-02-28T01:07:06;0.30;99.90
48264;DHT22;34086;51.076;13.722;2023-02-28T01:08:08;0.20;99.90
48264;DHT22;34086;51.076;13.722;2023-02-28T01:09:08;0.20;99.90
48264;DHT22;34086;51.076;13.722;2023-02-28T01:10:10;0.20;99.90
48264;DHT22;34086;51.076;13.722;2023-02-28T01:11:12;0.20;99.90
48264;DHT22;34086;51.076;13.722;2023-02-28T01:12:15;0.20;99.90
48264;DHT22;34086;51.076;13.722;2023-02-28T01:13:16;0.20;99.90
48264;DHT22;34086;51.076;13.722;2023-02-28T01:14:17;0.20;99.90
48264;DHT22;34086;51.076;13.722;2023-02-28T01:15:19;0.20;99.90
48264;DHT22;34086;51.076;13.722;2023-02-28T01:16:20;0.20;99.90
48264;DHT22;34086;51.076;13.722;2023-02-28T01:17:20;0.20;99.90
48264;DHT22;34086;51.076;13.722;2023-02-28T01:18:21;0.10;99.90
48264;DHT22;34086;51.076;13.722;2023-02-28T01:19:22;0.10;99.90
48264;DHT22;34086;51.076;13.722;2023-02-28T01:20:22;0.20;99.90
48264;DHT22;34086;51.076;13.722;2023-02-28T01:21:23;0.10;99.90
48264;DHT22;34086;51.076;13.722;2023-02-28T01:22:24;0.20;99.90
48264;DHT22;34086;51.076;13.722;2023-02-28T01:23:24;0.20;99.90
48264;DHT22;34086;51.076;13.722;2023-02-28T01:24:25;0.20;99.90
48264;DHT22;34086;51.076;13.722;2023-02-28T01:25:26;0.20;99.90
48264;DHT22;34086;51.076;13.722;2023-02-28T01:26:26;0.30;99.90
48264;DHT22;34086;51.076;13.722;2023-02-28T01:27:27;0.30;99.90
48264;DHT22;34086;51.076;13.722;2023-02-28T01:28:28;0.20;99.90
48264;DHT22;34086;51.076;13.722;2023-02-28T01:29:31;0.30;99.90
48264;DHT22;34086;51.076;13.722;2023-02-28T01:30:31;0.30;99.90
48264;DHT22;34086;51.076;13.722;2023-02-28T01:31:32;0.30;99.90
48264;DHT22;34086;51.076;13.722;2023-02-28T01:32:33;0.30;99.90
48264;DHT22;34086;51.076;13.722;2023-02-28T01:33:33;0.30;99.90
48264;DHT22;34086;51.076;13.722;2023-02-28T01:34:34;0.30;99.90
48264;DHT22;34086;51.076;13.722;2023-02-28T01:35:35;0.30;99.90
48264;DHT22;34086;51.076;13.722;2023-02-28T01:36:36;0.30;99.90
48264;DHT22;34086;51.076;13.722;2023-02-28T01:37:37;0.30;99.90
48264;DHT22;34086;51.076;13.722;2023-02-28T01:38:38;0.30;99.90
48264;DHT22;34086;51.076;13.722;2023-02-28T01:39:38;0.30;99.90
48264;DHT22;34086;51.076;13.722;2023-02-28T01:40:39;0.30;99.90
48264;DHT22;34086;51.076;13.722;2023-02-28T01:41:40;0.30;99.90
48264;DHT22;34086;51.076;13.722;2023-02-28T01:42:41;0.30;99.90
48264;DHT22;34086;51.076;13.722;2023-02-28T01:45:16;0.30;99.90
48264;DHT22;34086;51.076;13.722;2023-02-28T01:46:21;0.30;99.90
48264;DHT22;34086;51.076;13.722;2023-02-28T01:47:22;0.30;99.90
48264;DHT22;34086;51.076;13.722;2023-02-28T01:48:27;0.30;99.90
48264;DHT22;34086;51.076;13.722;2023-02-28T01:49:29;0.20;99.90
48264;DHT22;34086;51.076;13.722;2023-02-28T01:50:35;0.20;99.90
48264;DHT22;34086;51.076;13.722;2023-02-28T01:51:49;0.20;99.90
48264;DHT22;34086;51.076;13.722;2023-02-28T01:52:57;0.20;99.90
48264;DHT22;34086;51.076;13.722;2023-02-28T01:54:03;0.20;99.90
48264;DHT22;34086;51.076;13.722;2023-02-28T01:55:06;0.20;99.90
48264;DHT22;34086;51.076;13.722;2023-02-28T01:56:08;0.20;99.90
48264;DHT22;34086;51.076;13.722;2023-02-28T01:57:13;0.20;99.90
48264;DHT22;34086;51.076;13.722;2023-02-28T01:58:16;0.10;99.90
48264;DHT22;34086;51.076;13.722;2023-02-28T01:59:22;0.10;99.90
48264;DHT22;34086;51.076;13.722;2023-02-28T02:00:28;0.10;99.90
48264;DHT22;34086;51.076;13.722;2023-02-28T02:01:30;0.10;99.90
48264;DHT22;34086;51.076;13.722;2023-02-28T02:02:31;0.10;99.90
48264;DHT22;34086;51.076;13.722;2023-02-28T02:03:32;0.10;99.90
48264;DHT22;34086;51.076;13.722;2023-02-28T02:04:37;0.10;99.90
48264;DHT22;34086;51.076;13.722;2023-02-28T02:05:41;0.10;99.90
48264;DHT22;34086;51.076;13.722;2023-02-28T02:06:44;0.10;99.90
48264;DHT22;34086;51.076;13.722;2023-02-28T02:07:48;0.10;99.90
48264;DHT22;34086;51.076;13.722;2023-02-28T02:08:49;0.10;99.90
48264;DHT22;34086;51.076;13.722;2023-02-28T02:10:05;0.10;99.90
48264;DHT22;34086;51.076;13.722;2023-02-28T02:11:10;0.10;99.90
48264;DHT22;34086;51.076;13.722;2023-02-28T02:12:29;0.10;99.90
48264;DHT22;34086;51.076;13.722;2023-02-28T02:13:59;0.10;99.90
48264;DHT22;34086;51.076;13.722;2023-02-28T02:15:09;0.10;99.90
48264;DHT22;34086;51.076;13.722;2023-02-28T02:17:48;0.10;99.90
48264;DHT22;34086;51.076;13.722;2023-02-28T02:18:54;0.00;99.90
48264;DHT22;34086;51.076;13.722;2023-02-28T02:20:46;0.10;99.90
48264;DHT22;34086;51.076;13.722;2023-02-28T02:25:11;0.10;99.90
48264;DHT22;34086;51.076;13.722;2023-02-28T02:27:39;0.10;99.90
48264;DHT22;34086;51.076;13.722;2023-02-28T02:32:34;0.00;99.90
48264;DHT22;34086;51.076;13.722;2023-02-28T02:34:01;0.10;99.90
48264;DHT22;34086;51.076;13.722;2023-02-28T02:35:24;0.00;99.90
48264;DHT22;34086;51.076;13.722;2023-02-28T02:36:31;0.10;99.90
48264;DHT22;34086;51.076;13.722;2023-02-28T02:37:57;0.00;99.90
48264;DHT22;34086;51.076;13.722;2023-02-28T02:39:22;0.00;99.90
48264;DHT22;34086;51.076;13.722;2023-02-28T02:41:07;0.10;99.90
48264;DHT22;34086;51.076;13.722;2023-02-28T02:42:18;0.10;99.90
48264;DHT22;34086;51.076;13.722;2023-02-28T02:43:28;0.10;99.90
48264;DHT22;34086;51.076;13.722;2023-02-28T02:44:38;0.10;99.90
48264;DHT22;34086;51.076;13.722;2023-02-28T02:45:48;0.10;99.90
48264;DHT22;34086;51.076;13.722;2023-02-28T02:46:59;0.10;99.90
48264;DHT22;34086;51.076;13.722;2023-02-28T02:48:03;0.10;99.90
48264;DHT22;34086;51.076;13.722;2023-02-28T02:49:08;0.10;99.90
48264;DHT22;34086;51.076;13.722;2023-02-28T02:50:20;0.10;99.90
48264;DHT22;34086;51.076;13.722;2023-02-28T02:51:23;0.10;99.90
48264;DHT22;34086;51.076;13.722;2023-02-28T02:52:32;0.00;99.90
48264;DHT22;34086;51.076;13.722;2023-02-28T02:53:47;0.10;99.90
48264;DHT22;34086;51.076;13.722;2023-02-28T02:54:51;0.00;99.90
48264;DHT22;34086;51.076;13.722;2023-02-28T02:55:54;0.00;99.90
48264;DHT22;34086;51.076;13.722;2023-02-28T02:56:59;0.00;99.90
48264;DHT22;34086;51.076;13.722;2023-02-28T02:58:04;0.00;99.90
48264;DHT22;34086;51.076;13.722;2023-02-28T02:59:09;0.00;99.90
48264;DHT22;34086;51.076;13.722;2023-02-28T03:00:12;0.00;99.90
48264;DHT22;34086;51.076;13.722;2023-02-28T03:01:18;0.00;99.90
48264;DHT22;34086;51.076;13.722;2023-02-28T03:02:28;0.00;99.90
48264;DHT22;34086;51.076;13.722;2023-02-28T03:03:34;0.00;99.90
48264;DHT22;34086;51.076;13.722;2023-02-28T03:04:43;0.00;99.90
48264;DHT22;34086;51.076;13.722;2023-02-28T03:05:47;-0.10;99.90
48264;DHT22;34086;51.076;13.722;2023-02-28T03:06:50;-0.10;99.90
48264;DHT22;34086;51.076;13.722;2023-02-28T03:07:55;-0.10;99.90
48264;DHT22;34086;51.076;13.722;2023-02-28T03:08:56;-0.10;99.90
48264;DHT22;34086;51.076;13.722;2023-02-28T03:09:57;-0.10;99.90
48264;DHT22;34086;51.076;13.722;2023-02-28T03:11:01;-0.10;99.90
48264;DHT22;34086;51.076;13.722;2023-02-28T03:12:03;-0.20;99.90
48264;DHT22;34086;51.076;13.722;2023-02-28T03:14:25;-0.20;99.90
48264;DHT22;34086;51.076;13.722;2023-02-28T03:15:36;-0.20;99.90
48264;DHT22;34086;51.076;13.722;2023-02-28T03:16:54;-0.20;99.90
48264;DHT22;34086;51.076;13.722;2023-02-28T03:18:08;-0.30;99.90
48264;DHT22;34086;51.076;13.722;2023-02-28T03:22:05;-0.40;99.90
48264;DHT22;34086;51.076;13.722;2023-02-28T03:23:21;-0.40;99.90
48264;DHT22;34086;51.076;13.722;2023-02-28T03:24:36;-0.40;99.90
48264;DHT22;34086;51.076;13.722;2023-02-28T03:26:54;-0.50;99.90
48264;DHT22;34086;51.076;13.722;2023-02-28T03:28:15;-0.50;99.90
48264;DHT22;34086;51.076;13.722;2023-02-28T03:29:43;-0.50;99.90
48264;DHT22;34086;51.076;13.722;2023-02-28T03:31:01;-0.50;99.90
48264;DHT22;34086;51.076;13.722;2023-02-28T03:33:36;-0.60;99.90
48264;DHT22;34086;51.076;13.722;2023-02-28T03:34:41;-0.60;99.90
48264;DHT22;34086;51.076;13.722;2023-02-28T03:35:54;-0.60;99.90
48264;DHT22;34086;51.076;13.722;2023-02-28T03:36:59;-0.60;99.90
48264;DHT22;34086;51.076;13.722;2023-02-28T03:38:05;-0.70;99.90
48264;DHT22;34086;51.076;13.722;2023-02-28T03:39:19;-0.70;99.90
48264;DHT22;34086;51.076;13.722;2023-02-28T03:40:23;-0.70;99.90
48264;DHT22;34086;51.076;13.722;2023-02-28T03:41:32;-0.70;99.90
48264;DHT22;34086;51.076;13.722;2023-02-28T03:42:36;-0.80;99.90
48264;DHT22;34086;51.076;13.722;2023-02-28T03:43:41;-0.80;99.90
48264;DHT22;34086;51.076;13.722;2023-02-28T03:44:47;-0.80;99.90
48264;DHT22;34086;51.076;13.722;2023-02-28T03:45:50;-0.80;99.90
48264;DHT22;34086;51.076;13.722;2023-02-28T03:47:04;-0.80;99.90
48264;DHT22;34086;51.076;13.722;2023-02-28T03:48:08;-0.80;99.90
48264;DHT22;34086;51.076;13.722;2023-02-28T03:49:25;-0.80;99.90
48264;DHT22;34086;51.076;13.722;2023-02-28T03:50:37;-0.80;99.90
48264;DHT22;34086;51.076;13.722;2023-02-28T03:51:40;-0.90;99.90
48264;DHT22;34086;51.076;13.722;2023-02-28T03:53:01;-0.90;99.90
48264;DHT22;34086;51.076;13.722;2023-02-28T03:54:25;-0.90;99.90
48264;DHT22;34086;51.076;13.722;2023-02-28T03:55:37;-0.90;99.90
48264;DHT22;34086;51.076;13.722;2023-02-28T03:56:53;-1.00;99.90
48264;DHT22;34086;51.076;13.722;2023-02-28T03:58:05;-1.00;99.90
48264;DHT22;34086;51.076;13.722;2023-02-28T03:59:14;-1.10;99.90
48264;DHT22;34086;51.076;13.722;2023-02-28T04:00:21;-1.10;99.90
48264;DHT22;34086;51.076;13.722;2023-02-28T04:01:35;-1.10;99.90
48264;DHT22;34086;51.076;13.722;2023-02-28T04:02:36;-1.10;99.90
48264;DHT22;34086;51.076;13.722;2023-02-28T04:03:38;-1.10;99.90
48264;DHT22;34086;51.076;13.722;2023-02-28T04:04:38;-1.10;99.90
48264;DHT22;34086;51.076;13.722;2023-02-28T04:05:53;-1.20;99.90
48264;DHT22;34086;51.076;13.722;2023-02-28T04:07:06;-1.10;99.90
48264;DHT22;34086;51.076;13.722;2023-02-28T04:08:07;-1.20;99.90
48264;DHT22;34086;51.076;13.722;2023-02-28T04:09:11;-1.20;99.90
48264;DHT22;34086;51.076;13.722;2023-02-28T04:10:13;-1.20;99.90
48264;DHT22;34086;51.076;13.722;2023-02-28T04:11:26;-1.30;99.90
48264;DHT22;34086;51.076;13.722;2023-02-28T04:12:27;-1.20;99.90
48264;DHT22;34086;51.076;13.722;2023-02-28T04:13:28;-1.30;99.90
48264;DHT22;34086;51.076;13.722;2023-02-28T04:14:28;-1.30;99.90
48264;DHT22;34086;51.076;13.722;2023-02-28T04:15:29;-1.30;99.90
48264;DHT22;34086;51.076;13.722;2023-02-28T04:16:31;-1.20;99.90
48264;DHT22;34086;51.076;13.722;2023-02-28T04:17:31;-1.30;99.90
48264;DHT22;34086;51.076;13.722;2023-02-28T04:18:32;-1.30;99.90
48264;DHT22;34086;51.076;13.722;2023-02-28T04:19:32;-1.30;99.90
48264;DHT22;34086;51.076;13.722;2023-02-28T04:20:33;-1.30;99.90
48264;DHT22;34086;51.076;13.722;2023-02-28T04:21:39;-1.30;99.90
48264;DHT22;34086;51.076;13.722;2023-02-28T04:22:40;-1.30;99.90
48264;DHT22;34086;51.076;13.722;2023-02-28T04:23:40;-1.40;99.90
48264;DHT22;34086;51.076;13.722;2023-02-28T04:24:41;-1.40;99.90
48264;DHT22;34086;51.076;13.722;2023-02-28T04:25:42;-1.40;99.90
48264;DHT22;34086;51.076;13.722;2023-02-28T04:26:48;-1.40;99.90
48264;DHT22;34086;51.076;13.722;2023-02-28T04:27:49;-1.40;99.90
48264;DHT22;34086;51.076;13.722;2023-02-28T04:28:50;-1.40;99.90
48264;DHT22;34086;51.076;13.722;2023-02-28T04:29:50;-1.40;99.90
48264;DHT22;34086;51.076;13.722;2023-02-28T04:30:58;-1.40;99.90
48264;DHT22;34086;51.076;13.722;2023-02-28T04:32:00;-1.40;99.90
48264;DHT22;34086;51.076;13.722;2023-02-28T04:33:01;-1.40;99.90
48264;DHT22;34086;51.076;13.722;2023-02-28T04:34:02;-1.50;99.90
48264;DHT22;34086;51.076;13.722;2023-02-28T04:35:03;-1.50;99.90
48264;DHT22;34086;51.076;13.722;2023-02-28T04:36:06;-1.50;99.90
48264;DHT22;34086;51.076;13.722;2023-02-28T04:37:10;-1.50;99.90
48264;DHT22;34086;51.076;13.722;2023-02-28T04:38:10;-1.50;99.90
48264;DHT22;34086;51.076;13.722;2023-02-28T04:39:11;-1.60;99.90
48264;DHT22;34086;51.076;13.722;2023-02-28T04:40:12;-1.60;99.90
48264;DHT22;34086;51.076;13.722;2023-02-28T04:41:13;-1.60;99.90
48264;DHT22;34086;51.076;13.722;2023-02-28T04:42:13;-1.60;99.90
48264;DHT22;34086;51.076;13.722;2023-02-28T04:43:15;-1.60;99.90
48264;DHT22;34086;51.076;13.722;2023-02-28T04:44:16;-1.60;99.90
48264;DHT22;34086;51.076;13.722;2023-02-28T04:45:16;-1.60;99.90
48264;DHT22;34086;51.076;13.722;2023-02-28T04:46:17;-1.60;99.90
48264;DHT22;34086;51.076;13.722;2023-02-28T04:47:18;-1.60;99.90
48264;DHT22;34086;51.076;13.722;2023-02-28T04:48:19;-1.60;99.90
48264;DHT22;34086;51.076;13.722;2023-02-28T04:49:19;-1.60;99.90
48264;DHT22;34086;51.076;13.722;2023-02-28T04:50:20;-1.70;99.90
48264;DHT22;34086;51.076;13.722;2023-02-28T04:51:20;-1.60;99.90
48264;DHT22;34086;51.076;13.722;2023-02-28T04:52:21;-1.70;99.90
48264;DHT22;34086;51.076;13.722;2023-02-28T04:53:22;-1.60;99.90
48264;DHT22;34086;51.076;13.722;2023-02-28T04:54:22;-1.70;99.90
48264;DHT22;34086;51.076;13.722;2023-02-28T04:55:23;-1.60;99.90
48264;DHT22;34086;51.076;13.722;2023-02-28T04:56:23;-1.70;99.90
48264;DHT22;34086;51.076;13.722;2023-02-28T04:57:24;-1.70;99.90
48264;DHT22;34086;51.076;13.722;2023-02-28T04:58:25;-1.70;99.90
48264;DHT22;34086;51.076;13.722;2023-02-28T04:59:26;-1.70;99.90
48264;DHT22;34086;51.076;13.722;2023-02-28T05:00:26;-1.70;99.90
48264;DHT22;34086;51.076;13.722;2023-02-28T05:01:30;-1.70;99.90
48264;DHT22;34086;51.076;13.722;2023-02-28T05:02:30;-1.80;99.90
48264;DHT22;34086;51.076;13.722;2023-02-28T05:03:34;-1.80;99.90
48264;DHT22;34086;51.076;13.722;2023-02-28T05:04:34;-1.80;99.90
48264;DHT22;34086;51.076;13.722;2023-02-28T05:05:35;-1.80;99.90
48264;DHT22;34086;51.076;13.722;2023-02-28T05:06:35;-1.80;99.90
48264;DHT22;34086;51.076;13.722;2023-02-28T05:07:36;-1.80;99.90
48264;DHT22;34086;51.076;13.722;2023-02-28T05:08:37;-1.80;99.90
48264;DHT22;34086;51.076;13.722;2023-02-28T05:09:37;-1.80;99.90
48264;DHT22;34086;51.076;13.722;2023-02-28T05:10:38;-1.80;99.90
48264;DHT22;34086;51.076;13.722;2023-02-28T05:11:39;-1.80;99.90
48264;DHT22;34086;51.076;13.722;2023-02-28T05:12:39;-1.80;99.90
48264;DHT22;34086;51.076;13.722;2023-02-28T05:13:40;-1.80;99.90
48264;DHT22;34086;51.076;13.722;2023-02-28T05:14:41;-1.80;99.90
48264;DHT22;34086;51.076;13.722;2023-02-28T05:15:41;-1.80;99.90
48264;DHT22;34086;51.076;13.722;2023-02-28T05:16:43;-1.80;99.90
48264;DHT22;34086;51.076;13.722;2023-02-28T05:17:44;-1.80;99.90
48264;DHT22;34086;51.076;13.722;2023-02-28T05:18:44;-1.80;99.90
48264;DHT22;34086;51.076;13.722;2023-02-28T05:19:45;-1.80;99.90
48264;DHT22;34086;51.076;13.722;2023-02-28T05:20:46;-1.90;99.90
48264;DHT22;34086;51.076;13.722;2023-02-28T05:21:51;-1.90;99.90
48264;DHT22;34086;51.076;13.722;2023-02-28T05:22:52;-1.90;99.90
48264;DHT22;34086;51.076;13.722;2023-02-28T05:23:54;-1.90;99.90
48264;DHT22;34086;51.076;13.722;2023-02-28T05:24:55;-1.90;99.90
48264;DHT22;34086;51.076;13.722;2023-02-28T05:25:56;-1.90;99.90
48264;DHT22;34086;51.076;13.722;2023-02-28T05:26:56;-1.90;99.90
48264;DHT22;34086;51.076;13.722;2023-02-28T05:27:57;-1.90;99.90
48264;DHT22;34086;51.076;13.722;2023-02-28T05:28:57;-2.00;99.90
48264;DHT22;34086;51.076;13.722;2023-02-28T05:29:58;-2.00;99.90
48264;DHT22;34086;51.076;13.722;2023-02-28T05:30:59;-2.00;99.90
48264;DHT22;34086;51.076;13.722;2023-02-28T05:32:00;-2.00;99.90
48264;DHT22;34086;51.076;13.722;2023-02-28T05:33:00;-2.00;99.90
48264;DHT22;34086;51.076;13.722;2023-02-28T05:34:02;-2.00;99.90
48264;DHT22;34086;51.076;13.722;2023-02-28T05:35:04;-2.00;99.90
48264;DHT22;34086;51.076;13.722;2023-02-28T05:36:06;-2.00;99.90
48264;DHT22;34086;51.076;13.722;2023-02-28T05:37:11;-2.00;99.90
48264;DHT22;34086;51.076;13.722;2023-02-28T05:38:12;-2.00;99.90
48264;DHT22;34086;51.076;13.722;2023-02-28T05:39:13;-2.00;99.90
48264;DHT22;34086;51.076;13.722;2023-02-28T05:40:13;-2.00;99.90
48264;DHT22;34086;51.076;13.722;2023-02-28T05:41:16;-2.10;99.90
48264;DHT22;34086;51.076;13.722;2023-02-28T05:42:16;-2.00;99.90
48264;DHT22;34086;51.076;13.722;2023-02-28T05:43:17;-2.00;99.90
48264;DHT22;34086;51.076;13.722;2023-02-28T05:44:17;-2.10;99.90
48264;DHT22;34086;51.076;13.722;2023-02-28T05:45:18;-2.10;99.90
48264;DHT22;34086;51.076;13.722;2023-02-28T05:46:18;-2.10;99.90
48264;DHT22;34086;51.076;13.722;2023-02-28T05:47:19;-2.10;99.90
48264;DHT22;34086;51.076;13.722;2023-02-28T05:48:19;-2.10;99.90
48264;DHT22;34086;51.076;13.722;2023-02-28T05:49:20;-2.10;99.90
48264;DHT22;34086;51.076;13.722;2023-02-28T05:50:20;-2.10;99.90
48264;DHT22;34086;51.076;13.722;2023-02-28T05:51:21;-2.10;99.90
48264;DHT22;34086;51.076;13.722;2023-02-28T05:52:22;-2.10;99.90
48264;DHT22;34086;51.076;13.722;2023-02-28T05:53:22;-2.10;99.90
48264;DHT22;34086;51.076;13.722;2023-02-28T05:54:23;-2.10;99.90
48264;DHT22;34086;51.076;13.722;2023-02-28T05:55:23;-2.10;99.90
48264;DHT22;34086;51.076;13.722;2023-02-28T05:56:24;-2.10;99.90
48264;DHT22;34086;51.076;13.722;2023-02-28T05:57:25;-2.10;99.90
48264;DHT22;34086;51.076;13.722;2023-02-28T05:58:25;-2.10;99.90
48264;DHT22;34086;51.076;13.722;2023-02-28T05:59:30;-2.10;99.90
48264;DHT22;34086;51.076;13.722;2023-02-28T06:00:31;-2.10;99.90
48264;DHT22;34086;51.076;13.722;2023-02-28T06:01:37;-2.10;99.90
48264;DHT22;34086;51.076;13.722;2023-02-28T06:02:39;-2.10;99.90
48264;DHT22;34086;51.076;13.722;2023-02-28T06:03:40;-2.10;99.90
48264;DHT22;34086;51.076;13.722;2023-02-28T06:04:41;-2.10;99.90
48264;DHT22;34086;51.076;13.722;2023-02-28T06:05:42;-2.00;99.90
48264;DHT22;34086;51.076;13.722;2023-02-28T06:06:43;-2.00;99.90
48264;DHT22;34086;51.076;13.722;2023-02-28T06:07:44;-2.00;99.90
48264;DHT22;34086;51.076;13.722;2023-02-28T06:08:44;-2.00;99.90
48264;DHT22;34086;51.076;13.722;2023-02-28T06:09:46;-2.00;99.90
48264;DHT22;34086;51.076;13.722;2023-02-28T06:10:46;-2.00;99.90
48264;DHT22;34086;51.076;13.722;2023-02-28T06:11:47;-2.00;99.90
48264;DHT22;34086;51.076;13.722;2023-02-28T06:12:47;-2.00;99.90
48264;DHT22;34086;51.076;13.722;2023-02-28T06:13:48;-2.00;99.90
48264;DHT22;34086;51.076;13.722;2023-02-28T06:14:48;-2.00;99.90
48264;DHT22;34086;51.076;13.722;2023-02-28T06:15:49;-2.00;99.90
48264;DHT22;34086;51.076;13.722;2023-02-28T06:16:49;-2.00;99.90
48264;DHT22;34086;51.076;13.722;2023-02-28T06:17:50;-2.00;99.90
48264;DHT22;34086;51.076;13.722;2023-02-28T06:18:51;-2.00;99.90
48264;DHT22;34086;51.076;13.722;2023-02-28T06:19:52;-2.00;99.90
48264;DHT22;34086;51.076;13.722;2023-02-28T06:20:53;-2.00;99.90
48264;DHT22;34086;51.076;13.722;2023-02-28T06:21:55;-2.00;99.90
48264;DHT22;34086;51.076;13.722;2023-02-28T06:22:57;-1.90;99.90
48264;DHT22;34086;51.076;13.722;2023-02-28T06:23:59;-1.90;99.90
48264;DHT22;34086;51.076;13.722;2023-02-28T06:24:59;-1.90;99.90
48264;DHT22;34086;51.076;13.722;2023-02-28T06:26:00;-1.90;99.90
48264;DHT22;34086;51.076;13.722;2023-02-28T06:27:00;-1.90;99.90
48264;DHT22;34086;51.076;13.722;2023-02-28T06:28:05;-1.90;99.90
48264;DHT22;34086;51.076;13.722;2023-02-28T06:29:06;-1.90;99.90
48264;DHT22;34086;51.076;13.722;2023-02-28T06:30:07;-1.90;99.90
48264;DHT22;34086;51.076;13.722;2023-02-28T06:31:09;-1.90;99.90
48264;DHT22;34086;51.076;13.722;2023-02-28T06:32:10;-1.90;99.90
48264;DHT22;34086;51.076;13.722;2023-02-28T06:33:11;-1.90;99.90
48264;DHT22;34086;51.076;13.722;2023-02-28T06:34:12;-1.90;99.90
48264;DHT22;34086;51.076;13.722;2023-02-28T06:35:12;-1.90;99.90
48264;DHT22;34086;51.076;13.722;2023-02-28T06:36:15;-1.90;99.90
48264;DHT22;34086;51.076;13.722;2023-02-28T06:37:17;-1.80;99.90
48264;DHT22;34086;51.076;13.722;2023-02-28T06:38:18;-1.80;99.90
48264;DHT22;34086;51.076;13.722;2023-02-28T06:39:19;-1.80;99.90
48264;DHT22;34086;51.076;13.722;2023-02-28T06:40:19;-1.80;99.90
48264;DHT22;34086;51.076;13.722;2023-02-28T06:41:25;-1.80;99.90
48264;DHT22;34086;51.076;13.722;2023-02-28T06:42:26;-1.80;99.90
48264;DHT22;34086;51.076;13.722;2023-02-28T06:43:31;-1.80;99.90
48264;DHT22;34086;51.076;13.722;2023-02-28T06:44:32;-1.80;99.90
48264;DHT22;34086;51.076;13.722;2023-02-28T06:45:35;-1.80;99.90
48264;DHT22;34086;51.076;13.722;2023-02-28T06:46:36;-1.80;99.90
48264;DHT22;34086;51.076;13.722;2023-02-28T06:47:38;-1.80;99.90
48264;DHT22;34086;51.076;13.722;2023-02-28T06:48:39;-1.80;99.90
48264;DHT22;34086;51.076;13.722;2023-02-28T06:49:40;-1.80;99.90
48264;DHT22;34086;51.076;13.722;2023-02-28T06:50:41;-1.80;99.90
48264;DHT22;34086;51.076;13.722;2023-02-28T06:51:43;-1.70;99.90
48264;DHT22;34086;51.076;13.722;2023-02-28T06:52:45;-1.70;99.90
48264;DHT22;34086;51.076;13.722;2023-02-28T06:53:46;-1.70;99.90
48264;DHT22;34086;51.076;13.722;2023-02-28T06:54:47;-1.70;99.90
48264;DHT22;34086;51.076;13.722;2023-02-28T06:56:03;-1.70;99.90
48264;DHT22;34086;51.076;13.722;2023-02-28T06:57:04;-1.60;99.90